Rushford, New York
Current Conditions -  °F | °C
As of 5:15 AM on Thursday 23 Oct 2014 (Local Time) from KOLE Reporting Station
Overcast Overcast  
Wind Chill: 31°   Ceiling: 700
Heat Index: 37°   Visibility: 10mi
Dew Point: 37°   Wind: 8mph
Humidity: 100%   Direction: 340°NNW
Pressure: 30.06"   Gusts: 17mph
Location:  42.39°N, 78.25°W
Report Text: KOLE 230915Z AUTO 34007G15KT 300V010 10SM OVC007 03/03 A3006 RMK AO2
Loading
Personal Weather Stations






























Interactive Weather Map
Tropical Storm Tracking
New forecast layout! Learn more

10-Day Weather Forecast

Advertisements
Track Severe Weather on mobile